sensor_id;sensor_type;location;lat;lon;timestamp;pressure;altitude;pressure_sealevel;temperature;humidity
4745;BME280;2386;42.138;24.746;2023-10-09T00:00:32;99873.69;;;23.32;45.00
4745;BME280;2386;42.138;24.746;2023-10-09T00:03:04;99871.03;;;23.27;45.21
4745;BME280;2386;42.138;24.746;2023-10-09T00:05:33;99879.94;;;23.24;45.52
4745;BME280;2386;42.138;24.746;2023-10-09T00:08:20;99869.69;;;23.24;45.42
4745;BME280;2386;42.138;24.746;2023-10-09T00:11:11;99867.84;;;23.20;45.48
4745;BME280;2386;42.138;24.746;2023-10-09T00:13:44;99870.81;;;23.23;45.52
4745;BME280;2386;42.138;24.746;2023-10-09T00:16:22;99868.47;;;23.17;45.66
4745;BME280;2386;42.138;24.746;2023-10-09T00:19:04;99868.88;;;23.10;45.92
4745;BME280;2386;42.138;24.746;2023-10-09T00:21:59;99866.41;;;23.09;46.12
4745;BME280;2386;42.138;24.746;2023-10-09T00:24:31;99866.50;;;23.04;46.33
4745;BME280;2386;42.138;24.746;2023-10-09T00:26:57;99860.91;;;22.95;46.37
4745;BME280;2386;42.138;24.746;2023-10-09T00:29:38;99869.31;;;22.90;47.03
4745;BME280;2386;42.138;24.746;2023-10-09T00:32:13;99862.19;;;22.70;47.35
4745;BME280;2386;42.138;24.746;2023-10-09T00:34:42;99875.41;;;22.73;47.39
4745;BME280;2386;42.138;24.746;2023-10-09T00:37:11;99872.72;;;22.68;47.34
4745;BME280;2386;42.138;24.746;2023-10-09T00:39:47;99866.25;;;22.59;47.70
4745;BME280;2386;42.138;24.746;2023-10-09T00:42:14;99879.66;;;22.52;47.93
4745;BME280;2386;42.138;24.746;2023-10-09T00:44:51;99876.06;;;22.51;48.28
4745;BME280;2386;42.138;24.746;2023-10-09T00:47:17;99870.63;;;22.46;48.24
4745;BME280;2386;42.138;24.746;2023-10-09T00:50:11;99874.50;;;22.45;48.17
4745;BME280;2386;42.138;24.746;2023-10-09T00:52:39;99876.53;;;22.40;47.70
4745;BME280;2386;42.138;24.746;2023-10-09T00:55:32;99886.38;;;22.46;47.16
4745;BME280;2386;42.138;24.746;2023-10-09T00:58:14;99884.91;;;22.35;47.42
4745;BME280;2386;42.138;24.746;2023-10-09T01:00:41;99885.34;;;22.28;46.81
4745;BME280;2386;42.138;24.746;2023-10-09T01:03:11;99880.59;;;22.28;46.76
4745;BME280;2386;42.138;24.746;2023-10-09T01:05:49;99876.22;;;22.27;46.55
4745;BME280;2386;42.138;24.746;2023-10-09T01:08:19;99879.00;;;22.27;46.11
4745;BME280;2386;42.138;24.746;2023-10-09T01:10:50;99889.00;;;22.23;46.22
4745;BME280;2386;42.138;24.746;2023-10-09T01:13:18;99893.41;;;22.24;46.10
4745;BME280;2386;42.138;24.746;2023-10-09T01:15:44;99896.56;;;22.18;46.23
4745;BME280;2386;42.138;24.746;2023-10-09T01:18:11;99912.84;;;22.19;45.95
4745;BME280;2386;42.138;24.746;2023-10-09T01:20:37;99916.88;;;22.27;45.80
4745;BME280;2386;42.138;24.746;2023-10-09T01:23:10;99916.66;;;22.23;45.76
4745;BME280;2386;42.138;24.746;2023-10-09T01:25:36;99920.75;;;22.26;45.91
4745;BME280;2386;42.138;24.746;2023-10-09T01:28:09;99917.25;;;22.20;45.63
4745;BME280;2386;42.138;24.746;2023-10-09T01:30:34;99928.75;;;22.27;45.30
4745;BME280;2386;42.138;24.746;2023-10-09T01:33:07;99941.09;;;22.30;45.47
4745;BME280;2386;42.138;24.746;2023-10-09T01:35:37;99938.16;;;22.26;45.27
4745;BME280;2386;42.138;24.746;2023-10-09T01:38:23;99936.81;;;22.24;45.56
4745;BME280;2386;42.138;24.746;2023-10-09T01:41:10;99947.94;;;22.19;46.05
4745;BME280;2386;42.138;24.746;2023-10-09T01:43:40;99952.41;;;22.15;45.99
4745;BME280;2386;42.138;24.746;2023-10-09T01:46:10;99963.19;;;22.16;45.95
4745;BME280;2386;42.138;24.746;2023-10-09T01:48:36;99960.84;;;22.05;46.35
4745;BME280;2386;42.138;24.746;2023-10-09T01:51:05;99965.28;;;22.06;46.52
4745;BME280;2386;42.138;24.746;2023-10-09T01:53:30;99970.56;;;22.02;46.64
4745;BME280;2386;42.138;24.746;2023-10-09T01:56:08;99976.63;;;22.04;46.77
4745;BME280;2386;42.138;24.746;2023-10-09T01:58:34;99971.72;;;21.96;46.81
4745;BME280;2386;42.138;24.746;2023-10-09T02:01:00;99973.97;;;21.94;47.20
4745;BME280;2386;42.138;24.746;2023-10-09T02:03:27;99980.59;;;21.93;47.08
4745;BME280;2386;42.138;24.746;2023-10-09T02:05:54;99978.50;;;21.85;46.92
4745;BME280;2386;42.138;24.746;2023-10-09T02:08:25;99983.13;;;21.89;47.28
4745;BME280;2386;42.138;24.746;2023-10-09T02:11:01;99986.78;;;21.85;47.56
4745;BME280;2386;42.138;24.746;2023-10-09T02:13:28;99993.44;;;21.84;47.68
4745;BME280;2386;42.138;24.746;2023-10-09T02:16:00;100012.47;;;21.85;47.78
4745;BME280;2386;42.138;24.746;2023-10-09T02:18:41;100018.06;;;21.80;47.94
4745;BME280;2386;42.138;24.746;2023-10-09T02:21:27;100023.34;;;21.77;47.88
4745;BME280;2386;42.138;24.746;2023-10-09T02:24:02;100027.22;;;21.76;48.20
4745;BME280;2386;42.138;24.746;2023-10-09T02:26:32;100064.25;;;21.75;48.90
4745;BME280;2386;42.138;24.746;2023-10-09T02:29:03;100089.50;;;21.63;49.09
4745;BME280;2386;42.138;24.746;2023-10-09T02:31:43;100081.84;;;21.31;49.63
4745;BME280;2386;42.138;24.746;2023-10-09T02:34:19;100109.72;;;20.90;49.72
4745;BME280;2386;42.138;24.746;2023-10-09T02:36:49;100108.25;;;20.69;50.45
4745;BME280;2386;42.138;24.746;2023-10-09T02:39:15;100117.78;;;20.43;50.19
4745;BME280;2386;42.138;24.746;2023-10-09T02:42:01;100125.22;;;20.32;50.29
4745;BME280;2386;42.138;24.746;2023-10-09T02:44:33;100141.63;;;20.03;50.77
4745;BME280;2386;42.138;24.746;2023-10-09T02:47:04;100142.22;;;19.85;50.64
4745;BME280;2386;42.138;24.746;2023-10-09T02:49:37;100142.78;;;19.77;50.14
4745;BME280;2386;42.138;24.746;2023-10-09T02:52:06;100148.03;;;19.58;50.64
4745;BME280;2386;42.138;24.746;2023-10-09T02:54:35;100156.00;;;19.39;50.42
4745;BME280;2386;42.138;24.746;2023-10-09T02:57:01;100152.19;;;19.10;50.91
4745;BME280;2386;42.138;24.746;2023-10-09T02:59:36;100159.56;;;18.94;51.91
4745;BME280;2386;42.138;24.746;2023-10-09T03:02:06;100167.84;;;18.99;51.22
4745;BME280;2386;42.138;24.746;2023-10-09T03:04:33;100168.09;;;18.92;51.14
4745;BME280;2386;42.138;24.746;2023-10-09T03:06:59;100172.78;;;18.92;51.64
4745;BME280;2386;42.138;24.746;2023-10-09T03:09:25;100175.53;;;18.92;50.94
4745;BME280;2386;42.138;24.746;2023-10-09T03:11:59;100173.00;;;18.75;51.46
4745;BME280;2386;42.138;24.746;2023-10-09T03:14:35;100184.28;;;18.74;51.17
4745;BME280;2386;42.138;24.746;2023-10-09T03:17:04;100197.16;;;18.68;51.33
4745;BME280;2386;42.138;24.746;2023-10-09T03:19:31;100197.66;;;18.60;51.40
4745;BME280;2386;42.138;24.746;2023-10-09T03:22:08;100195.41;;;18.42;51.90
4745;BME280;2386;42.138;24.746;2023-10-09T03:24:36;100211.66;;;18.48;51.60
4745;BME280;2386;42.138;24.746;2023-10-09T03:27:03;100223.75;;;18.47;51.25
4745;BME280;2386;42.138;24.746;2023-10-09T03:29:29;100217.66;;;18.40;52.03
4745;BME280;2386;42.138;24.746;2023-10-09T03:31:54;100222.47;;;18.18;52.58
4745;BME280;2386;42.138;24.746;2023-10-09T03:34:22;100226.13;;;18.28;52.34
4745;BME280;2386;42.138;24.746;2023-10-09T03:36:47;100231.50;;;18.13;52.42
4745;BME280;2386;42.138;24.746;2023-10-09T03:39:14;100229.31;;;18.10;53.00
4745;BME280;2386;42.138;24.746;2023-10-09T03:41:58;100237.34;;;18.22;51.90
4745;BME280;2386;42.138;24.746;2023-10-09T03:44:26;100232.38;;;18.19;52.32
4745;BME280;2386;42.138;24.746;2023-10-09T03:46:55;100231.50;;;18.13;52.13
4745;BME280;2386;42.138;24.746;2023-10-09T03:49:21;100240.88;;;18.17;51.86
4745;BME280;2386;42.138;24.746;2023-10-09T03:51:51;100241.56;;;17.97;52.56
4745;BME280;2386;42.138;24.746;2023-10-09T03:54:18;100240.72;;;17.92;52.54
4745;BME280;2386;42.138;24.746;2023-10-09T03:56:48;100243.00;;;18.05;52.45
4745;BME280;2386;42.138;24.746;2023-10-09T03:59:20;100253.81;;;17.85;53.28
4745;BME280;2386;42.138;24.746;2023-10-09T04:01:46;100259.34;;;17.90;53.00
4745;BME280;2386;42.138;24.746;2023-10-09T04:04:13;100264.34;;;17.98;52.94
4745;BME280;2386;42.138;24.746;2023-10-09T04:06:39;100264.81;;;17.80;53.05
4745;BME280;2386;42.138;24.746;2023-10-09T04:09:07;100270.34;;;17.90;51.74
4745;BME280;2386;42.138;24.746;2023-10-09T04:11:59;100268.19;;;17.97;51.54
4745;BME280;2386;42.138;24.746;2023-10-09T04:14:37;100268.22;;;18.02;50.67
4745;BME280;2386;42.138;24.746;2023-10-09T04:17:12;100267.28;;;17.86;51.55
4745;BME280;2386;42.138;24.746;2023-10-09T04:19:50;100266.44;;;17.81;51.35
4745;BME280;2386;42.138;24.746;2023-10-09T04:22:39;100273.34;;;17.88;51.18
4745;BME280;2386;42.138;24.746;2023-10-09T04:25:08;100281.53;;;17.83;51.39
4745;BME280;2386;42.138;24.746;2023-10-09T04:27:43;100291.78;;;17.93;50.94
4745;BME280;2386;42.138;24.746;2023-10-09T04:30:10;100301.03;;;17.82;49.89
4745;BME280;2386;42.138;24.746;2023-10-09T04:32:43;100307.88;;;17.79;48.53
4745;BME280;2386;42.138;24.746;2023-10-09T04:35:12;100311.41;;;17.75;48.65
4745;BME280;2386;42.138;24.746;2023-10-09T04:37:51;100318.38;;;17.60;48.76
4745;BME280;2386;42.138;24.746;2023-10-09T04:40:31;100304.25;;;17.47;48.87
4745;BME280;2386;42.138;24.746;2023-10-09T04:43:17;100312.88;;;17.33;48.83
4745;BME280;2386;42.138;24.746;2023-10-09T04:45:47;100313.66;;;17.29;48.67
4745;BME280;2386;42.138;24.746;2023-10-09T04:48:32;100312.16;;;17.16;49.03
4745;BME280;2386;42.138;24.746;2023-10-09T04:50:59;100322.41;;;17.26;48.43
4745;BME280;2386;42.138;24.746;2023-10-09T04:53:43;100326.59;;;17.33;47.97
4745;BME280;2386;42.138;24.746;2023-10-09T04:56:27;100329.59;;;17.32;48.18
4745;BME280;2386;42.138;24.746;2023-10-09T04:58:57;100332.91;;;17.34;47.64
4745;BME280;2386;42.138;24.746;2023-10-09T05:01:29;100328.91;;;17.20;48.43
4745;BME280;2386;42.138;24.746;2023-10-09T05:04:02;100340.56;;;17.32;47.81
4745;BME280;2386;42.138;24.746;2023-10-09T05:06:29;100334.25;;;17.31;47.47
4745;BME280;2386;42.138;24.746;2023-10-09T05:09:08;100352.13;;;17.12;48.23
4745;BME280;2386;42.138;24.746;2023-10-09T05:11:34;100342.69;;;17.25;47.03
4745;BME280;2386;42.138;24.746;2023-10-09T05:14:19;100344.84;;;17.23;47.40
4745;BME280;2386;42.138;24.746;2023-10-09T05:16:52;100346.06;;;17.32;46.80
4745;BME280;2386;42.138;24.746;2023-10-09T05:19:23;100341.66;;;17.31;46.52
4745;BME280;2386;42.138;24.746;2023-10-09T05:22:10;100354.59;;;17.14;46.96
4745;BME280;2386;42.138;24.746;2023-10-09T05:24:54;100356.59;;;17.18;46.02
4745;BME280;2386;42.138;24.746;2023-10-09T05:27:20;100363.50;;;16.99;45.14
4745;BME280;2386;42.138;24.746;2023-10-09T05:30:06;100372.81;;;16.98;45.74
4745;BME280;2386;42.138;24.746;2023-10-09T05:32:56;100376.94;;;17.00;44.92
4745;BME280;2386;42.138;24.746;2023-10-09T05:35:28;100383.06;;;17.07;44.18
4745;BME280;2386;42.138;24.746;2023-10-09T05:38:07;100383.69;;;17.15;44.20
4745;BME280;2386;42.138;24.746;2023-10-09T05:40:41;100387.91;;;17.00;43.96
4745;BME280;2386;42.138;24.746;2023-10-09T05:43:09;100385.09;;;16.95;44.42
4745;BME280;2386;42.138;24.746;2023-10-09T05:45:54;100394.34;;;17.11;44.62
4745;BME280;2386;42.138;24.746;2023-10-09T05:48:35;100391.97;;;17.20;44.03
4745;BME280;2386;42.138;24.746;2023-10-09T05:51:04;100386.38;;;17.09;45.21
4745;BME280;2386;42.138;24.746;2023-10-09T05:53:37;100398.56;;;16.97;45.43
4745;BME280;2386;42.138;24.746;2023-10-09T05:56:09;100405.25;;;17.28;56.33
4745;BME280;2386;42.138;24.746;2023-10-09T05:58:53;100415.00;;;17.40;49.39
4745;BME280;2386;42.138;24.746;2023-10-09T06:01:37;100416.19;;;17.71;49.37
4745;BME280;2386;42.138;24.746;2023-10-09T06:04:21;100417.22;;;17.92;51.22
4745;BME280;2386;42.138;24.746;2023-10-09T06:06:59;100421.88;;;17.92;44.63
4745;BME280;2386;42.138;24.746;2023-10-09T06:09:25;100429.41;;;17.75;43.93
4745;BME280;2386;42.138;24.746;2023-10-09T06:12:14;100443.28;;;17.90;43.73
4745;BME280;2386;42.138;24.746;2023-10-09T06:14:57;100454.75;;;17.82;43.87
4745;BME280;2386;42.138;24.746;2023-10-09T06:17:23;100452.00;;;17.82;43.28
4745;BME280;2386;42.138;24.746;2023-10-09T06:19:49;100455.03;;;17.85;43.90
4745;BME280;2386;42.138;24.746;2023-10-09T06:22:15;100464.13;;;17.91;42.93
4745;BME280;2386;42.138;24.746;2023-10-09T06:25:15;100462.41;;;17.80;43.31
4745;BME280;2386;42.138;24.746;2023-10-09T06:27:44;100485.00;;;17.92;42.79
4745;BME280;2386;42.138;24.746;2023-10-09T06:30:12;100496.25;;;17.90;42.51
4745;BME280;2386;42.138;24.746;2023-10-09T06:32:39;100497.84;;;17.86;42.12
4745;BME280;2386;42.138;24.746;2023-10-09T06:35:16;100491.97;;;17.72;42.16
4745;BME280;2386;42.138;24.746;2023-10-09T06:37:49;100502.47;;;17.81;42.41
4745;BME280;2386;42.138;24.746;2023-10-09T06:40:30;100513.16;;;17.77;42.79
4745;BME280;2386;42.138;24.746;2023-10-09T06:43:02;100512.75;;;17.68;43.25
4745;BME280;2386;42.138;24.746;2023-10-09T06:45:37;100520.28;;;17.78;42.88
4745;BME280;2386;42.138;24.746;2023-10-09T06:48:13;100521.34;;;17.99;46.60
4745;BME280;2386;42.138;24.746;2023-10-09T06:51:01;100522.03;;;18.11;51.04
4745;BME280;2386;42.138;24.746;2023-10-09T06:53:54;100520.97;;;18.17;47.41
4745;BME280;2386;42.138;24.746;2023-10-09T06:56:20;100526.63;;;18.32;44.46
4745;BME280;2386;42.138;24.746;2023-10-09T06:59:15;100536.53;;;18.33;47.37
4745;BME280;2386;42.138;24.746;2023-10-09T07:01:40;100547.00;;;18.36;44.98
4745;BME280;2386;42.138;24.746;2023-10-09T07:04:11;100539.34;;;18.38;43.67
4745;BME280;2386;42.138;24.746;2023-10-09T07:06:55;100543.88;;;18.55;45.32
4745;BME280;2386;42.138;24.746;2023-10-09T07:09:22;100556.59;;;18.61;45.02
4745;BME280;2386;42.138;24.746;2023-10-09T07:11:52;100548.56;;;18.59;42.43
4745;BME280;2386;42.138;24.746;2023-10-09T07:14:26;100560.66;;;18.58;42.90
4745;BME280;2386;42.138;24.746;2023-10-09T07:17:07;100557.59;;;18.50;42.75
4745;BME280;2386;42.138;24.746;2023-10-09T07:20:02;100546.91;;;18.53;42.18
4745;BME280;2386;42.138;24.746;2023-10-09T07:22:35;100551.50;;;18.48;42.38
4745;BME280;2386;42.138;24.746;2023-10-09T07:25:05;100559.75;;;18.48;43.33
4745;BME280;2386;42.138;24.746;2023-10-09T07:27:57;100559.75;;;18.48;44.51
4745;BME280;2386;42.138;24.746;2023-10-09T07:30:25;100548.66;;;18.64;45.05
4745;BME280;2386;42.138;24.746;2023-10-09T07:33:06;100557.22;;;18.68;43.50
4745;BME280;2386;42.138;24.746;2023-10-09T07:35:35;100557.91;;;18.58;44.60
4745;BME280;2386;42.138;24.746;2023-10-09T07:38:20;100560.16;;;18.61;43.75
4745;BME280;2386;42.138;24.746;2023-10-09T07:40:51;100567.69;;;18.71;44.64
4745;BME280;2386;42.138;24.746;2023-10-09T07:43:38;100561.09;;;18.72;44.88
4745;BME280;2386;42.138;24.746;2023-10-09T07:46:08;100559.47;;;18.76;43.72
4745;BME280;2386;42.138;24.746;2023-10-09T07:48:59;100557.78;;;19.02;47.88
4745;BME280;2386;42.138;24.746;2023-10-09T07:51:26;100560.03;;;19.10;45.71
4745;BME280;2386;42.138;24.746;2023-10-09T07:53:58;100556.69;;;19.03;43.44
4745;BME280;2386;42.138;24.746;2023-10-09T07:56:37;100550.63;;;19.01;42.18
4745;BME280;2386;42.138;24.746;2023-10-09T07:59:25;100555.13;;;19.17;43.54
4745;BME280;2386;42.138;24.746;2023-10-09T08:01:50;100549.97;;;19.26;44.58
4745;BME280;2386;42.138;24.746;2023-10-09T08:04:28;100554.94;;;19.34;42.29
4745;BME280;2386;42.138;24.746;2023-10-09T08:07:12;100541.16;;;19.24;42.49
4745;BME280;2386;42.138;24.746;2023-10-09T08:09:45;100546.88;;;19.17;42.22
4745;BME280;2386;42.138;24.746;2023-10-09T08:12:16;100553.19;;;19.13;42.34
4745;BME280;2386;42.138;24.746;2023-10-09T08:15:02;100548.28;;;19.20;42.14
4745;BME280;2386;42.138;24.746;2023-10-09T08:17:39;100553.25;;;19.23;42.36
4745;BME280;2386;42.138;24.746;2023-10-09T08:20:05;100546.78;;;19.02;43.41
4745;BME280;2386;42.138;24.746;2023-10-09T08:22:37;100553.41;;;19.06;42.88
4745;BME280;2386;42.138;24.746;2023-10-09T08:25:10;100558.59;;;19.02;42.47
4745;BME280;2386;42.138;24.746;2023-10-09T08:27:52;100551.72;;;19.00;43.10
4745;BME280;2386;42.138;24.746;2023-10-09T08:30:22;100546.47;;;18.98;42.97
4745;BME280;2386;42.138;24.746;2023-10-09T08:32:51;100543.50;;;19.05;47.15
4745;BME280;2386;42.138;24.746;2023-10-09T08:35:33;100543.34;;;19.22;44.91
4745;BME280;2386;42.138;24.746;2023-10-09T08:38:01;100542.28;;;19.33;50.02
4745;BME280;2386;42.138;24.746;2023-10-09T08:40:40;100540.66;;;19.37;49.32
4745;BME280;2386;42.138;24.746;2023-10-09T08:43:09;100531.41;;;19.53;48.36
4745;BME280;2386;42.138;24.746;2023-10-09T08:45:39;100534.44;;;19.52;49.77
4745;BME280;2386;42.138;24.746;2023-10-09T08:48:09;100532.25;;;19.54;48.59
4745;BME280;2386;42.138;24.746;2023-10-09T08:50:41;100541.94;;;19.66;49.46
4745;BME280;2386;42.138;24.746;2023-10-09T08:53:08;100530.19;;;19.29;45.96
4745;BME280;2386;42.138;24.746;2023-10-09T08:55:36;100530.75;;;19.36;50.85
4745;BME280;2386;42.138;24.746;2023-10-09T08:58:02;100517.56;;;19.43;51.41
4745;BME280;2386;42.138;24.746;2023-10-09T09:00:31;100530.25;;;19.44;50.06
4745;BME280;2386;42.138;24.746;2023-10-09T09:02:58;100525.28;;;19.41;51.17
4745;BME280;2386;42.138;24.746;2023-10-09T09:05:27;100511.88;;;19.55;49.25
4745;BME280;2386;42.138;24.746;2023-10-09T09:07:54;100516.13;;;19.78;50.08
4745;BME280;2386;42.138;24.746;2023-10-09T09:10:30;100512.06;;;19.43;44.14
4745;BME280;2386;42.138;24.746;2023-10-09T09:13:04;100507.59;;;19.32;45.53
4745;BME280;2386;42.138;24.746;2023-10-09T09:15:30;100506.50;;;19.33;44.97
4745;BME280;2386;42.138;24.746;2023-10-09T09:18:06;100508.22;;;19.44;46.97
4745;BME280;2386;42.138;24.746;2023-10-09T09:20:34;100503.09;;;19.58;46.70
4745;BME280;2386;42.138;24.746;2023-10-09T09:23:09;100496.78;;;19.62;47.32
4745;BME280;2386;42.138;24.746;2023-10-09T09:25:41;100498.66;;;19.52;45.41
4745;BME280;2386;42.138;24.746;2023-10-09T09:28:12;100497.84;;;19.51;47.99
4745;BME280;2386;42.138;24.746;2023-10-09T09:30:38;100490.41;;;19.52;46.63
4745;BME280;2386;42.138;24.746;2023-10-09T09:33:25;100484.56;;;19.48;45.68
4745;BME280;2386;42.138;24.746;2023-10-09T09:36:08;100482.34;;;19.40;46.02
4745;BME280;2386;42.138;24.746;2023-10-09T09:38:37;100481.25;;;19.41;46.57
4745;BME280;2386;42.138;24.746;2023-10-09T09:41:16;100482.72;;;19.54;49.85
4745;BME280;2386;42.138;24.746;2023-10-09T09:43:57;100474.19;;;19.55;46.13
4745;BME280;2386;42.138;24.746;2023-10-09T09:46:35;100481.09;;;19.63;46.29
4745;BME280;2386;42.138;24.746;2023-10-09T09:49:04;100482.50;;;19.71;46.17
4745;BME280;2386;42.138;24.746;2023-10-09T09:51:33;100470.41;;;19.77;48.50
4745;BME280;2386;42.138;24.746;2023-10-09T09:54:00;100471.56;;;19.91;47.29
4745;BME280;2386;42.138;24.746;2023-10-09T09:56:36;100463.28;;;19.91;47.84
4745;BME280;2386;42.138;24.746;2023-10-09T09:59:05;100454.50;;;19.99;46.24
4745;BME280;2386;42.138;24.746;2023-10-09T10:01:33;100447.06;;;20.10;49.06
4745;BME280;2386;42.138;24.746;2023-10-09T10:04:07;100447.63;;;20.17;48.01
4745;BME280;2386;42.138;24.746;2023-10-09T10:06:37;100431.91;;;20.27;46.25
4745;BME280;2386;42.138;24.746;2023-10-09T10:09:06;100425.03;;;20.30;46.56
4745;BME280;2386;42.138;24.746;2023-10-09T10:11:48;100412.09;;;20.35;49.56
4745;BME280;2386;42.138;24.746;2023-10-09T10:14:19;100416.81;;;20.40;45.03
4745;BME280;2386;42.138;24.746;2023-10-09T10:17:04;100414.88;;;20.41;43.69
4745;BME280;2386;42.138;24.746;2023-10-09T10:22:27;100393.38;;;20.48;45.81
4745;BME280;2386;42.138;24.746;2023-10-09T10:24:53;100382.06;;;20.49;44.88
4745;BME280;2386;42.138;24.746;2023-10-09T10:27:20;100384.81;;;20.44;43.92
4745;BME280;2386;42.138;24.746;2023-10-09T10:35:20;100360.28;;;20.48;44.84
4745;BME280;2386;42.138;24.746;2023-10-09T10:38:00;100367.47;;;20.49;44.94
4745;BME280;2386;42.138;24.746;2023-10-09T10:40:36;100367.16;;;20.55;44.55
4745;BME280;2386;42.138;24.746;2023-10-09T10:43:05;100366.34;;;20.55;43.70
4745;BME280;2386;42.138;24.746;2023-10-09T10:45:45;100363.03;;;20.58;44.25
4745;BME280;2386;42.138;24.746;2023-10-09T10:48:11;100360.28;;;20.58;43.57
4745;BME280;2386;42.138;24.746;2023-10-09T10:50:57;100342.34;;;20.60;44.09
4745;BME280;2386;42.138;24.746;2023-10-09T10:53:23;100349.78;;;20.65;44.05
4745;BME280;2386;42.138;24.746;2023-10-09T10:56:00;100347.03;;;20.70;44.08
4745;BME280;2386;42.138;24.746;2023-10-09T10:58:53;100339.84;;;20.69;44.11
4745;BME280;2386;42.138;24.746;2023-10-09T11:01:34;100332.66;;;20.73;43.35
4745;BME280;2386;42.138;24.746;2023-10-09T11:04:22;100325.22;;;20.74;43.48
4745;BME280;2386;42.138;24.746;2023-10-09T11:07:01;100324.66;;;20.77;43.35
4745;BME280;2386;42.138;24.746;2023-10-09T11:09:53;100322.75;;;20.72;42.80
4745;BME280;2386;42.138;24.746;2023-10-09T11:15:36;100305.94;;;20.74;42.01
4745;BME280;2386;42.138;24.746;2023-10-09T11:18:39;100293.56;;;20.61;42.23
4745;BME280;2386;42.138;24.746;2023-10-09T11:21:08;100309.00;;;20.62;41.45
4745;BME280;2386;42.138;24.746;2023-10-09T11:23:33;100287.50;;;20.54;41.68
4745;BME280;2386;42.138;24.746;2023-10-09T11:26:00;100296.34;;;20.51;42.27
4745;BME280;2386;42.138;24.746;2023-10-09T11:28:44;100283.13;;;20.48;42.33
4745;BME280;2386;42.138;24.746;2023-10-09T11:31:22;100269.31;;;20.53;42.69
4745;BME280;2386;42.138;24.746;2023-10-09T11:33:50;100269.28;;;20.63;42.18
4745;BME280;2386;42.138;24.746;2023-10-09T11:36:22;100261.00;;;20.68;42.32
4745;BME280;2386;42.138;24.746;2023-10-09T11:39:00;100257.97;;;20.70;40.14
4745;BME280;2386;42.138;24.746;2023-10-09T11:41:41;100256.56;;;20.72;40.80
4745;BME280;2386;42.138;24.746;2023-10-09T11:44:06;100236.72;;;20.75;40.93
4745;BME280;2386;42.138;24.746;2023-10-09T11:46:32;100230.09;;;20.76;40.11
4745;BME280;2386;42.138;24.746;2023-10-09T11:49:15;100228.38;;;20.80;41.28
4745;BME280;2386;42.138;24.746;2023-10-09T11:51:47;100224.50;;;20.86;40.30
4745;BME280;2386;42.138;24.746;2023-10-09T11:54:32;100227.53;;;20.85;39.38
4745;BME280;2386;42.138;24.746;2023-10-09T11:57:01;100233.59;;;20.87;40.07
4745;BME280;2386;42.138;24.746;2023-10-09T11:59:28;100225.00;;;20.93;39.50
4745;BME280;2386;42.138;24.746;2023-10-09T12:02:00;100231.09;;;20.90;39.36
4745;BME280;2386;42.138;24.746;2023-10-09T12:04:26;100213.41;;;20.96;39.71
4745;BME280;2386;42.138;24.746;2023-10-09T12:06:58;100210.63;;;21.02;37.96
4745;BME280;2386;42.138;24.746;2023-10-09T12:09:35;100204.53;;;21.05;38.47
4745;BME280;2386;42.138;24.746;2023-10-09T12:12:05;100203.97;;;21.08;39.76
4745;BME280;2386;42.138;24.746;2023-10-09T12:14:31;100194.25;;;21.15;40.45
4745;BME280;2386;42.138;24.746;2023-10-09T12:17:00;100187.34;;;21.18;40.74
4745;BME280;2386;42.138;24.746;2023-10-09T12:19:39;100190.63;;;21.25;40.19
4745;BME280;2386;42.138;24.746;2023-10-09T12:22:06;100184.25;;;21.29;40.31
4745;BME280;2386;42.138;24.746;2023-10-09T12:24:35;100187.25;;;21.33;39.92
4745;BME280;2386;42.138;24.746;2023-10-09T12:27:03;100185.81;;;21.41;39.47
4745;BME280;2386;42.138;24.746;2023-10-09T12:29:35;100178.88;;;21.43;40.09
4745;BME280;2386;42.138;24.746;2023-10-09T12:32:00;100181.06;;;21.46;39.80
4745;BME280;2386;42.138;24.746;2023-10-09T12:34:26;100170.56;;;21.48;39.33
4745;BME280;2386;42.138;24.746;2023-10-09T12:36:56;100169.91;;;21.56;39.57
4745;BME280;2386;42.138;24.746;2023-10-09T12:39:26;100164.34;;;21.61;38.60
4745;BME280;2386;42.138;24.746;2023-10-09T12:41:56;100161.28;;;21.63;38.83
4745;BME280;2386;42.138;24.746;2023-10-09T12:44:24;100163.75;;;21.64;38.97
4745;BME280;2386;42.138;24.746;2023-10-09T12:46:52;100150.72;;;21.70;39.56
4745;BME280;2386;42.138;24.746;2023-10-09T12:49:21;100142.97;;;21.72;39.13
4745;BME280;2386;42.138;24.746;2023-10-09T12:51:53;100140.16;;;21.77;38.68
4745;BME280;2386;42.138;24.746;2023-10-09T12:54:19;100139.34;;;21.77;38.51
4745;BME280;2386;42.138;24.746;2023-10-09T12:56:55;100135.47;;;21.78;38.11
4745;BME280;2386;42.138;24.746;2023-10-09T12:59:21;100135.19;;;21.79;37.87
4745;BME280;2386;42.138;24.746;2023-10-09T13:01:48;100133.81;;;21.77;38.43
4745;BME280;2386;42.138;24.746;2023-10-09T13:04:23;100135.72;;;21.81;38.02
4745;BME280;2386;42.138;24.746;2023-10-09T13:06:49;100118.66;;;21.74;37.89
4745;BME280;2386;42.138;24.746;2023-10-09T13:09:19;100121.13;;;21.76;38.33
4745;BME280;2386;42.138;24.746;2023-10-09T13:11:58;100118.59;;;21.79;38.46
4745;BME280;2386;42.138;24.746;2023-10-09T13:14:28;100099.13;;;21.65;38.37
4745;BME280;2386;42.138;24.746;2023-10-09T13:16:56;100100.69;;;21.77;38.48
4745;BME280;2386;42.138;24.746;2023-10-09T13:19:21;100093.81;;;21.74;38.39
4745;BME280;2386;42.138;24.746;2023-10-09T13:21:49;100088.00;;;21.76;38.11
4745;BME280;2386;42.138;24.746;2023-10-09T13:24:15;100081.09;;;21.73;38.37
4745;BME280;2386;42.138;24.746;2023-10-09T13:26:49;100077.53;;;21.73;37.75
4745;BME280;2386;42.138;24.746;2023-10-09T13:29:17;100083.28;;;21.76;38.08
4745;BME280;2386;42.138;24.746;2023-10-09T13:31:48;100083.88;;;21.73;38.46
4745;BME280;2386;42.138;24.746;2023-10-09T13:34:14;100075.88;;;21.72;38.57
4745;BME280;2386;42.138;24.746;2023-10-09T13:36:43;100068.72;;;21.71;38.28
4745;BME280;2386;42.138;24.746;2023-10-09T13:39:18;100077.28;;;21.69;38.58
4745;BME280;2386;42.138;24.746;2023-10-09T13:41:56;100078.63;;;21.72;38.60
4745;BME280;2386;42.138;24.746;2023-10-09T13:44:33;100067.88;;;21.70;37.98
4745;BME280;2386;42.138;24.746;2023-10-09T13:46:59;100069.81;;;21.70;37.95